sensor_id;sensor_type;location;lat;lon;timestamp;pressure;altitude;pressure_sealevel;temperature;humidity
36190;BME280;22232;50.914;13.858;2023-04-21T00:01:45;97928.13;;;7.89;100.00
36190;BME280;22232;50.914;13.858;2023-04-21T00:04:13;97920.94;;;7.90;100.00
36190;BME280;22232;50.914;13.858;2023-04-21T00:06:41;97919.09;;;7.90;100.00
36190;BME280;22232;50.914;13.858;2023-04-21T00:09:09;97921.19;;;7.88;100.00
36190;BME280;22232;50.914;13.858;2023-04-21T00:11:37;97923.00;;;7.88;100.00
36190;BME280;22232;50.914;13.858;2023-04-21T00:14:04;97907.88;;;7.95;100.00
36190;BME280;22232;50.914;13.858;2023-04-21T00:16:32;97918.69;;;7.93;100.00
36190;BME280;22232;50.914;13.858;2023-04-21T00:19:00;97912.59;;;7.86;100.00
36190;BME280;22232;50.914;13.858;2023-04-21T00:21:28;97913.00;;;7.90;100.00
36190;BME280;22232;50.914;13.858;2023-04-21T00:23:56;97914.84;;;7.89;100.00
36190;BME280;22232;50.914;13.858;2023-04-21T00:26:23;97916.41;;;7.97;100.00
36190;BME280;22232;50.914;13.858;2023-04-21T00:28:51;97920.75;;;7.91;100.00
36190;BME280;22232;50.914;13.858;2023-04-21T00:31:19;97917.94;;;7.79;100.00
36190;BME280;22232;50.914;13.858;2023-04-21T00:33:46;97919.16;;;7.77;100.00
36190;BME280;22232;50.914;13.858;2023-04-21T00:36:14;97912.22;;;7.76;100.00
36190;BME280;22232;50.914;13.858;2023-04-21T00:38:41;97910.78;;;7.80;100.00
36190;BME280;22232;50.914;13.858;2023-04-21T00:41:09;97913.84;;;7.84;100.00
36190;BME280;22232;50.914;13.858;2023-04-21T00:44:00;97912.78;;;7.85;100.00
36190;BME280;22232;50.914;13.858;2023-04-21T00:46:30;97903.81;;;7.86;100.00
36190;BME280;22232;50.914;13.858;2023-04-21T00:48:59;97910.13;;;7.91;100.00
36190;BME280;22232;50.914;13.858;2023-04-21T00:51:27;97903.38;;;7.95;100.00
36190;BME280;22232;50.914;13.858;2023-04-21T00:53:55;97903.97;;;7.97;100.00
36190;BME280;22232;50.914;13.858;2023-04-21T00:56:24;97906.06;;;7.89;100.00
36190;BME280;22232;50.914;13.858;2023-04-21T00:58:53;97897.69;;;7.85;100.00
36190;BME280;22232;50.914;13.858;2023-04-21T01:01:21;97900.97;;;7.80;100.00
36190;BME280;22232;50.914;13.858;2023-04-21T01:03:49;97896.69;;;7.79;100.00
36190;BME280;22232;50.914;13.858;2023-04-21T01:06:17;97903.41;;;7.82;100.00
36190;BME280;22232;50.914;13.858;2023-04-21T01:08:45;97896.91;;;7.78;100.00
36190;BME280;22232;50.914;13.858;2023-04-21T01:11:15;97898.75;;;7.77;100.00
36190;BME280;22232;50.914;13.858;2023-04-21T01:13:42;97898.09;;;7.82;100.00
36190;BME280;22232;50.914;13.858;2023-04-21T01:16:15;97890.34;;;7.80;100.00
36190;BME280;22232;50.914;13.858;2023-04-21T01:18:44;97892.41;;;7.78;100.00
36190;BME280;22232;50.914;13.858;2023-04-21T01:21:12;97894.25;;;7.78;100.00
36190;BME280;22232;50.914;13.858;2023-04-21T01:23:40;97886.03;;;7.86;100.00
36190;BME280;22232;50.914;13.858;2023-04-21T01:26:08;97886.66;;;7.88;100.00
36190;BME280;22232;50.914;13.858;2023-04-21T01:28:36;97888.28;;;7.89;100.00
36190;BME280;22232;50.914;13.858;2023-04-21T01:31:04;97894.38;;;7.96;100.00
36190;BME280;22232;50.914;13.858;2023-04-21T01:33:32;97889.66;;;7.98;100.00
36190;BME280;22232;50.914;13.858;2023-04-21T01:36:00;97888.47;;;7.94;100.00
36190;BME280;22232;50.914;13.858;2023-04-21T01:38:28;97885.09;;;8.12;100.00
36190;BME280;22232;50.914;13.858;2023-04-21T01:40:58;97877.44;;;8.29;100.00
36190;BME280;22232;50.914;13.858;2023-04-21T01:43:26;97880.03;;;8.42;100.00
36190;BME280;22232;50.914;13.858;2023-04-21T01:45:55;97873.59;;;8.25;100.00
36190;BME280;22232;50.914;13.858;2023-04-21T01:48:23;97878.59;;;8.46;100.00
36190;BME280;22232;50.914;13.858;2023-04-21T01:50:51;97871.19;;;8.48;100.00
36190;BME280;22232;50.914;13.858;2023-04-21T01:53:18;97876.03;;;8.26;100.00
36190;BME280;22232;50.914;13.858;2023-04-21T01:55:46;97883.47;;;8.11;100.00
36190;BME280;22232;50.914;13.858;2023-04-21T01:58:14;97874.53;;;7.99;100.00
36190;BME280;22232;50.914;13.858;2023-04-21T02:00:41;97887.03;;;7.92;100.00
36190;BME280;22232;50.914;13.858;2023-04-21T02:03:09;97876.47;;;7.85;100.00
36190;BME280;22232;50.914;13.858;2023-04-21T02:05:37;97876.47;;;7.78;100.00
36190;BME280;22232;50.914;13.858;2023-04-21T02:08:05;97880.56;;;7.74;100.00
36190;BME280;22232;50.914;13.858;2023-04-21T02:10:33;97874.66;;;7.72;100.00
36190;BME280;22232;50.914;13.858;2023-04-21T02:13:00;97875.00;;;7.89;100.00
36190;BME280;22232;50.914;13.858;2023-04-21T02:15:28;97870.72;;;7.88;100.00
36190;BME280;22232;50.914;13.858;2023-04-21T02:17:56;97864.22;;;7.77;100.00
36190;BME280;22232;50.914;13.858;2023-04-21T02:20:24;97858.34;;;7.69;100.00
36190;BME280;22232;50.914;13.858;2023-04-21T02:22:52;97862.59;;;7.70;100.00
36190;BME280;22232;50.914;13.858;2023-04-21T02:25:20;97866.91;;;7.71;100.00
36190;BME280;22232;50.914;13.858;2023-04-21T02:27:47;97863.66;;;7.69;100.00
36190;BME280;22232;50.914;13.858;2023-04-21T02:30:14;97861.22;;;7.67;100.00
36190;BME280;22232;50.914;13.858;2023-04-21T02:32:43;97860.22;;;7.62;100.00
36190;BME280;22232;50.914;13.858;2023-04-21T02:35:11;97862.06;;;7.61;100.00
36190;BME280;22232;50.914;13.858;2023-04-21T02:37:38;97862.47;;;7.58;100.00
36190;BME280;22232;50.914;13.858;2023-04-21T02:40:07;97860.63;;;7.58;100.00
36190;BME280;22232;50.914;13.858;2023-04-21T02:42:35;97862.06;;;7.54;100.00
36190;BME280;22232;50.914;13.858;2023-04-21T02:45:02;97860.19;;;7.68;100.00
36190;BME280;22232;50.914;13.858;2023-04-21T02:47:30;97860.16;;;7.75;100.00
36190;BME280;22232;50.914;13.858;2023-04-21T02:49:58;97855.66;;;7.75;100.00
36190;BME280;22232;50.914;13.858;2023-04-21T02:52:25;97859.31;;;7.81;100.00
36190;BME280;22232;50.914;13.858;2023-04-21T02:54:53;97852.38;;;7.80;100.00
36190;BME280;22232;50.914;13.858;2023-04-21T02:57:20;97851.72;;;7.85;100.00
36190;BME280;22232;50.914;13.858;2023-04-21T02:59:48;97857.44;;;7.88;100.00
36190;BME280;22232;50.914;13.858;2023-04-21T03:02:15;97859.06;;;7.89;100.00
36190;BME280;22232;50.914;13.858;2023-04-21T03:04:43;97862.53;;;7.90;100.00
36190;BME280;22232;50.914;13.858;2023-04-21T03:07:11;97864.41;;;7.82;100.00
36190;BME280;22232;50.914;13.858;2023-04-21T03:09:40;97858.69;;;7.79;100.00
36190;BME280;22232;50.914;13.858;2023-04-21T03:12:07;97863.41;;;7.77;100.00
36190;BME280;22232;50.914;13.858;2023-04-21T03:14:35;97857.47;;;7.81;100.00
36190;BME280;22232;50.914;13.858;2023-04-21T03:17:02;97847.66;;;7.82;100.00
36190;BME280;22232;50.914;13.858;2023-04-21T03:19:30;97855.59;;;7.82;100.00
36190;BME280;22232;50.914;13.858;2023-04-21T03:21:59;97856.03;;;7.79;100.00
36190;BME280;22232;50.914;13.858;2023-04-21T03:24:27;97856.06;;;7.72;100.00
36190;BME280;22232;50.914;13.858;2023-04-21T03:26:56;97855.88;;;7.74;100.00
36190;BME280;22232;50.914;13.858;2023-04-21T03:29:24;97853.63;;;7.71;100.00
36190;BME280;22232;50.914;13.858;2023-04-21T03:31:51;97860.78;;;7.70;100.00
36190;BME280;22232;50.914;13.858;2023-04-21T03:34:20;97855.47;;;7.70;100.00
36190;BME280;22232;50.914;13.858;2023-04-21T03:36:47;97860.59;;;7.65;100.00
36190;BME280;22232;50.914;13.858;2023-04-21T03:39:15;97853.69;;;7.64;100.00
36190;BME280;22232;50.914;13.858;2023-04-21T03:41:48;97857.56;;;7.62;100.00
36190;BME280;22232;50.914;13.858;2023-04-21T03:44:15;97860.00;;;7.63;100.00
36190;BME280;22232;50.914;13.858;2023-04-21T03:46:43;97860.22;;;7.62;100.00
36190;BME280;22232;50.914;13.858;2023-04-21T03:49:11;97857.16;;;7.58;100.00
36190;BME280;22232;50.914;13.858;2023-04-21T03:51:38;97856.31;;;7.64;100.00
36190;BME280;22232;50.914;13.858;2023-04-21T03:54:05;97854.88;;;7.68;100.00
36190;BME280;22232;50.914;13.858;2023-04-21T03:56:34;97855.06;;;7.67;100.00
36190;BME280;22232;50.914;13.858;2023-04-21T03:59:02;97856.28;;;7.71;100.00
36190;BME280;22232;50.914;13.858;2023-04-21T04:01:29;97862.00;;;7.74;100.00
36190;BME280;22232;50.914;13.858;2023-04-21T04:03:57;97870.72;;;7.81;100.00
36190;BME280;22232;50.914;13.858;2023-04-21T04:06:25;97865.56;;;7.93;100.00
36190;BME280;22232;50.914;13.858;2023-04-21T04:08:53;97868.34;;;8.12;100.00
36190;BME280;22232;50.914;13.858;2023-04-21T04:11:20;97870.44;;;8.35;100.00
36190;BME280;22232;50.914;13.858;2023-04-21T04:13:47;97863.72;;;8.64;100.00
36190;BME280;22232;50.914;13.858;2023-04-21T04:16:15;97865.63;;;8.82;100.00
36190;BME280;22232;50.914;13.858;2023-04-21T04:18:43;97868.69;;;9.04;100.00
36190;BME280;22232;50.914;13.858;2023-04-21T04:21:11;97875.59;;;9.30;100.00
36190;BME280;22232;50.914;13.858;2023-04-21T04:23:39;97863.47;;;9.52;100.00
36190;BME280;22232;50.914;13.858;2023-04-21T04:26:07;97866.00;;;9.84;100.00
36190;BME280;22232;50.914;13.858;2023-04-21T04:28:36;97867.13;;;10.06;100.00
36190;BME280;22232;50.914;13.858;2023-04-21T04:31:04;97871.41;;;10.38;100.00
36190;BME280;22232;50.914;13.858;2023-04-21T04:33:32;97872.19;;;10.56;100.00
36190;BME280;22232;50.914;13.858;2023-04-21T04:36:00;97870.94;;;10.94;100.00
36190;BME280;22232;50.914;13.858;2023-04-21T04:38:28;97871.53;;;11.32;100.00
36190;BME280;22232;50.914;13.858;2023-04-21T04:40:56;97857.34;;;11.55;100.00
36190;BME280;22232;50.914;13.858;2023-04-21T04:43:25;97867.97;;;11.78;100.00
36190;BME280;22232;50.914;13.858;2023-04-21T04:45:52;97864.81;;;11.93;100.00
36190;BME280;22232;50.914;13.858;2023-04-21T04:48:20;97867.34;;;12.28;100.00
36190;BME280;22232;50.914;13.858;2023-04-21T04:50:47;97871.13;;;12.61;100.00
36190;BME280;22232;50.914;13.858;2023-04-21T04:53:15;97863.44;;;12.81;100.00
36190;BME280;22232;50.914;13.858;2023-04-21T04:55:42;97871.34;;;13.44;93.45
36190;BME280;22232;50.914;13.858;2023-04-21T04:58:10;97863.19;;;13.77;86.80
36190;BME280;22232;50.914;13.858;2023-04-21T05:00:37;97864.38;;;13.87;87.24
36190;BME280;22232;50.914;13.858;2023-04-21T05:03:05;97861.75;;;13.92;83.40
36190;BME280;22232;50.914;13.858;2023-04-21T05:05:33;97870.41;;;13.99;85.70
36190;BME280;22232;50.914;13.858;2023-04-21T05:08:00;97866.06;;;14.20;83.41
36190;BME280;22232;50.914;13.858;2023-04-21T05:10:28;97867.84;;;14.36;82.27
36190;BME280;22232;50.914;13.858;2023-04-21T05:12:55;97871.34;;;14.37;83.18
36190;BME280;22232;50.914;13.858;2023-04-21T05:15:23;97878.56;;;14.36;78.46
36190;BME280;22232;50.914;13.858;2023-04-21T05:17:50;97879.19;;;14.43;80.09
36190;BME280;22232;50.914;13.858;2023-04-21T05:20:18;97884.06;;;14.46;81.96
36190;BME280;22232;50.914;13.858;2023-04-21T05:22:46;97874.75;;;14.54;79.43
36190;BME280;22232;50.914;13.858;2023-04-21T05:25:13;97880.13;;;14.54;80.94
36190;BME280;22232;50.914;13.858;2023-04-21T05:27:42;97877.09;;;14.51;83.98
36190;BME280;22232;50.914;13.858;2023-04-21T05:30:10;97885.25;;;14.88;81.69
36190;BME280;22232;50.914;13.858;2023-04-21T05:32:37;97882.53;;;15.20;77.46
36190;BME280;22232;50.914;13.858;2023-04-21T05:35:05;97884.41;;;15.20;73.50
36190;BME280;22232;50.914;13.858;2023-04-21T05:37:33;97882.75;;;15.61;64.83
36190;BME280;22232;50.914;13.858;2023-04-21T05:40:01;97878.09;;;15.94;62.23
36190;BME280;22232;50.914;13.858;2023-04-21T05:42:28;97869.25;;;15.98;64.32
36190;BME280;22232;50.914;13.858;2023-04-21T05:44:56;97874.41;;;16.10;65.18
36190;BME280;22232;50.914;13.858;2023-04-21T05:47:24;97875.50;;;16.14;71.57
36190;BME280;22232;50.914;13.858;2023-04-21T05:49:52;97875.00;;;16.33;67.77
36190;BME280;22232;50.914;13.858;2023-04-21T05:52:20;97880.94;;;16.55;59.11
36190;BME280;22232;50.914;13.858;2023-04-21T05:54:48;97873.63;;;16.25;64.38
36190;BME280;22232;50.914;13.858;2023-04-21T05:57:15;97871.81;;;16.56;61.26
36190;BME280;22232;50.914;13.858;2023-04-21T05:59:44;97873.41;;;16.57;58.49
36190;BME280;22232;50.914;13.858;2023-04-21T06:02:11;97865.31;;;16.32;70.76
36190;BME280;22232;50.914;13.858;2023-04-21T06:04:39;97876.78;;;15.96;61.22
36190;BME280;22232;50.914;13.858;2023-04-21T06:07:07;97879.66;;;15.74;69.27
36190;BME280;22232;50.914;13.858;2023-04-21T06:09:36;97874.41;;;15.52;70.54
36190;BME280;22232;50.914;13.858;2023-04-21T06:12:04;97871.44;;;15.54;72.47
36190;BME280;22232;50.914;13.858;2023-04-21T06:14:32;97876.34;;;15.62;72.19
36190;BME280;22232;50.914;13.858;2023-04-21T06:17:00;97873.56;;;15.47;75.64
36190;BME280;22232;50.914;13.858;2023-04-21T06:19:27;97874.69;;;15.56;87.84
36190;BME280;22232;50.914;13.858;2023-04-21T06:21:56;97876.19;;;15.36;85.10
36190;BME280;22232;50.914;13.858;2023-04-21T06:24:23;97868.34;;;15.25;81.88
36190;BME280;22232;50.914;13.858;2023-04-21T06:26:51;97872.22;;;15.44;91.53
36190;BME280;22232;50.914;13.858;2023-04-21T06:29:19;97870.53;;;15.80;92.46
36190;BME280;22232;50.914;13.858;2023-04-21T06:31:47;97866.94;;;15.65;89.68
36190;BME280;22232;50.914;13.858;2023-04-21T06:34:14;97873.44;;;15.69;88.07
36190;BME280;22232;50.914;13.858;2023-04-21T06:36:43;97857.88;;;15.71;90.50
36190;BME280;22232;50.914;13.858;2023-04-21T06:39:11;97862.53;;;15.96;92.64
36190;BME280;22232;50.914;13.858;2023-04-21T06:41:38;97865.53;;;16.15;90.04
36190;BME280;22232;50.914;13.858;2023-04-21T06:44:06;97860.06;;;15.84;78.64
36190;BME280;22232;50.914;13.858;2023-04-21T06:46:34;97862.53;;;15.48;100.00
36190;BME280;22232;50.914;13.858;2023-04-21T06:49:01;97863.78;;;14.56;100.00
36190;BME280;22232;50.914;13.858;2023-04-21T06:51:29;97860.47;;;14.49;100.00
36190;BME280;22232;50.914;13.858;2023-04-21T06:53:56;97864.84;;;14.55;100.00
36190;BME280;22232;50.914;13.858;2023-04-21T06:56:26;97864.91;;;14.97;100.00
36190;BME280;22232;50.914;13.858;2023-04-21T06:58:54;97861.84;;;14.83;100.00
36190;BME280;22232;50.914;13.858;2023-04-21T07:01:22;97872.72;;;14.99;100.00
36190;BME280;22232;50.914;13.858;2023-04-21T07:03:52;97867.97;;;14.19;100.00
36190;BME280;22232;50.914;13.858;2023-04-21T07:06:20;97862.81;;;14.18;100.00
36190;BME280;22232;50.914;13.858;2023-04-21T07:08:47;97867.59;;;14.11;100.00
36190;BME280;22232;50.914;13.858;2023-04-21T07:11:15;97861.50;;;14.48;100.00
36190;BME280;22232;50.914;13.858;2023-04-21T07:13:43;97862.47;;;14.36;100.00
36190;BME280;22232;50.914;13.858;2023-04-21T07:16:10;97860.72;;;14.47;100.00
36190;BME280;22232;50.914;13.858;2023-04-21T07:18:39;97860.50;;;14.27;100.00
36190;BME280;22232;50.914;13.858;2023-04-21T07:21:07;97860.22;;;14.23;100.00
36190;BME280;22232;50.914;13.858;2023-04-21T07:23:34;97858.13;;;14.52;100.00
36190;BME280;22232;50.914;13.858;2023-04-21T07:26:03;97861.00;;;14.78;100.00
36190;BME280;22232;50.914;13.858;2023-04-21T07:28:30;97860.03;;;14.89;100.00
36190;BME280;22232;50.914;13.858;2023-04-21T07:30:58;97859.81;;;15.38;100.00
36190;BME280;22232;50.914;13.858;2023-04-21T07:33:29;97857.91;;;15.91;93.79
36190;BME280;22232;50.914;13.858;2023-04-21T07:35:56;97857.47;;;16.15;81.46
36190;BME280;22232;50.914;13.858;2023-04-21T07:38:25;97847.03;;;16.49;98.17
36190;BME280;22232;50.914;13.858;2023-04-21T07:40:53;97851.84;;;16.26;82.13
36190;BME280;22232;50.914;13.858;2023-04-21T07:43:21;97855.59;;;16.20;95.18
36190;BME280;22232;50.914;13.858;2023-04-21T07:45:48;97846.75;;;16.35;94.35
36190;BME280;22232;50.914;13.858;2023-04-21T07:48:18;97856.19;;;16.58;77.39
36190;BME280;22232;50.914;13.858;2023-04-21T07:50:45;97851.88;;;16.67;84.25
36190;BME280;22232;50.914;13.858;2023-04-21T07:53:13;97853.72;;;16.26;68.71
36190;BME280;22232;50.914;13.858;2023-04-21T07:55:40;97833.53;;;16.13;68.57
36190;BME280;22232;50.914;13.858;2023-04-21T07:58:08;97848.78;;;15.97;63.00
36190;BME280;22232;50.914;13.858;2023-04-21T08:00:36;97839.09;;;15.86;59.92
36190;BME280;22232;50.914;13.858;2023-04-21T08:03:04;97852.28;;;15.93;60.16
36190;BME280;22232;50.914;13.858;2023-04-21T08:05:31;97845.31;;;15.92;58.49
36190;BME280;22232;50.914;13.858;2023-04-21T08:08:05;97845.31;;;15.92;57.65
36190;BME280;22232;50.914;13.858;2023-04-21T08:10:33;97846.19;;;16.28;67.34
36190;BME280;22232;50.914;13.858;2023-04-21T08:13:01;97859.63;;;16.28;58.27
36190;BME280;22232;50.914;13.858;2023-04-21T08:15:29;97853.16;;;16.14;61.76
36190;BME280;22232;50.914;13.858;2023-04-21T08:17:57;97844.88;;;16.51;71.11
36190;BME280;22232;50.914;13.858;2023-04-21T08:20:24;97833.53;;;16.34;54.51
36190;BME280;22232;50.914;13.858;2023-04-21T08:22:52;97850.78;;;16.38;55.56
36190;BME280;22232;50.914;13.858;2023-04-21T08:25:19;97832.22;;;16.57;55.65
36190;BME280;22232;50.914;13.858;2023-04-21T08:27:47;97841.38;;;16.45;55.36
36190;BME280;22232;50.914;13.858;2023-04-21T08:30:15;97815.53;;;16.39;54.30
36190;BME280;22232;50.914;13.858;2023-04-21T08:32:43;97825.78;;;16.68;56.89
36190;BME280;22232;50.914;13.858;2023-04-21T08:35:10;97826.59;;;16.94;56.58
36190;BME280;22232;50.914;13.858;2023-04-21T08:37:38;97822.56;;;16.81;52.06
36190;BME280;22232;50.914;13.858;2023-04-21T08:40:06;97821.75;;;16.96;52.41
36190;BME280;22232;50.914;13.858;2023-04-21T08:42:34;97823.34;;;17.07;51.72
36190;BME280;22232;50.914;13.858;2023-04-21T08:45:03;97820.63;;;17.23;55.20
36190;BME280;22232;50.914;13.858;2023-04-21T08:47:32;97819.78;;;17.27;51.20
36190;BME280;22232;50.914;13.858;2023-04-21T08:49:59;97836.25;;;17.15;53.36
36190;BME280;22232;50.914;13.858;2023-04-21T08:52:27;97826.84;;;17.08;47.96
36190;BME280;22232;50.914;13.858;2023-04-21T08:54:55;97826.56;;;17.19;50.56
36190;BME280;22232;50.914;13.858;2023-04-21T08:57:22;97821.19;;;17.14;51.83
36190;BME280;22232;50.914;13.858;2023-04-21T08:59:50;97823.78;;;17.50;54.19
36190;BME280;22232;50.914;13.858;2023-04-21T09:02:18;97819.66;;;17.78;51.36
36190;BME280;22232;50.914;13.858;2023-04-21T09:04:47;97832.38;;;17.52;46.52
36190;BME280;22232;50.914;13.858;2023-04-21T09:07:31;97828.69;;;17.28;50.17
36190;BME280;22232;50.914;13.858;2023-04-21T09:09:59;97830.38;;;16.88;48.36
36190;BME280;22232;50.914;13.858;2023-04-21T09:12:28;97828.47;;;17.14;50.61
36190;BME280;22232;50.914;13.858;2023-04-21T09:14:56;97822.78;;;17.26;50.23
36190;BME280;22232;50.914;13.858;2023-04-21T09:17:28;97817.25;;;17.66;54.85
36190;BME280;22232;50.914;13.858;2023-04-21T09:20:20;97808.63;;;18.19;58.63
36190;BME280;22232;50.914;13.858;2023-04-21T09:22:48;97816.53;;;18.05;50.53
36190;BME280;22232;50.914;13.858;2023-04-21T09:25:21;97834.53;;;17.60;50.61
36190;BME280;22232;50.914;13.858;2023-04-21T09:27:48;97823.66;;;17.76;52.49
36190;BME280;22232;50.914;13.858;2023-04-21T09:30:19;97816.09;;;17.88;52.83
36190;BME280;22232;50.914;13.858;2023-04-21T09:32:49;97808.56;;;17.85;50.36
36190;BME280;22232;50.914;13.858;2023-04-21T09:35:16;97824.00;;;17.59;49.05
36190;BME280;22232;50.914;13.858;2023-04-21T09:37:44;97823.75;;;17.55;50.45
36190;BME280;22232;50.914;13.858;2023-04-21T09:40:17;97812.41;;;17.58;48.67
36190;BME280;22232;50.914;13.858;2023-04-21T09:42:45;97821.09;;;17.45;50.06
36190;BME280;22232;50.914;13.858;2023-04-21T09:45:13;97814.66;;;17.36;49.55
36190;BME280;22232;50.914;13.858;2023-04-21T09:47:46;97818.09;;;17.52;51.15
36190;BME280;22232;50.914;13.858;2023-04-21T09:50:16;97818.44;;;17.30;48.68
36190;BME280;22232;50.914;13.858;2023-04-21T09:53:15;97817.91;;;17.33;49.46
36190;BME280;22232;50.914;13.858;2023-04-21T09:55:46;97813.84;;;17.25;47.65
36190;BME280;22232;50.914;13.858;2023-04-21T09:58:19;97814.56;;;17.61;48.00
36190;BME280;22232;50.914;13.858;2023-04-21T10:00:50;97809.72;;;17.58;52.04
36190;BME280;22232;50.914;13.858;2023-04-21T10:03:22;97807.88;;;17.43;45.96
36190;BME280;22232;50.914;13.858;2023-04-21T10:05:54;97811.41;;;17.44;46.26
36190;BME280;22232;50.914;13.858;2023-04-21T10:08:21;97805.19;;;17.43;48.54
36190;BME280;22232;50.914;13.858;2023-04-21T10:10:49;97802.94;;;17.66;51.75
36190;BME280;22232;50.914;13.858;2023-04-21T10:13:20;97800.47;;;17.80;46.42
36190;BME280;22232;50.914;13.858;2023-04-21T10:15:48;97802.94;;;17.66;46.10
36190;BME280;22232;50.914;13.858;2023-04-21T10:18:27;97794.56;;;17.73;49.03
36190;BME280;22232;50.914;13.858;2023-04-21T10:23:38;97793.19;;;16.90;47.31
36190;BME280;22232;50.914;13.858;2023-04-21T10:26:09;97793.47;;;16.63;47.82
36190;BME280;22232;50.914;13.858;2023-04-21T10:28:41;97784.06;;;16.81;47.60
36190;BME280;22232;50.914;13.858;2023-04-21T10:31:18;97791.03;;;16.87;49.88
36190;BME280;22232;50.914;13.858;2023-04-21T10:36:34;97795.31;;;17.08;48.31
36190;BME280;22232;50.914;13.858;2023-04-21T10:39:03;97779.16;;;17.08;47.07
36190;BME280;22232;50.914;13.858;2023-04-21T10:41:34;97790.44;;;17.20;48.90
36190;BME280;22232;50.914;13.858;2023-04-21T10:44:22;97788.78;;;17.25;47.56
36190;BME280;22232;50.914;13.858;2023-04-21T10:46:52;97789.88;;;17.24;46.83
36190;BME280;22232;50.914;13.858;2023-04-21T10:49:24;97787.53;;;16.81;45.95
36190;BME280;22232;50.914;13.858;2023-04-21T10:56:58;97772.75;;;17.64;46.89
36190;BME280;22232;50.914;13.858;2023-04-21T10:59:25;97771.88;;;17.84;46.46
36190;BME280;22232;50.914;13.858;2023-04-21T11:01:53;97773.03;;;17.57;48.70
36190;BME280;22232;50.914;13.858;2023-04-21T11:04:21;97766.47;;;17.84;48.81
36190;BME280;22232;50.914;13.858;2023-04-21T11:09:35;97769.75;;;18.20;48.22
36190;BME280;22232;50.914;13.858;2023-04-21T11:12:16;97781.25;;;18.36;47.29
36190;BME280;22232;50.914;13.858;2023-04-21T11:14:45;97771.16;;;18.07;48.34
36190;BME280;22232;50.914;13.858;2023-04-21T11:17:17;97762.19;;;17.67;48.11
36190;BME280;22232;50.914;13.858;2023-04-21T11:19:47;97757.47;;;17.39;50.67
36190;BME280;22232;50.914;13.858;2023-04-21T11:22:19;97755.34;;;17.41;54.00
36190;BME280;22232;50.914;13.858;2023-04-21T11:24:48;97759.63;;;17.37;52.41
36190;BME280;22232;50.914;13.858;2023-04-21T11:27:17;97761.41;;;17.62;50.93
36190;BME280;22232;50.914;13.858;2023-04-21T11:29:45;97760.28;;;17.73;49.90
36190;BME280;22232;50.914;13.858;2023-04-21T11:32:13;97759.47;;;17.73;52.29
36190;BME280;22232;50.914;13.858;2023-04-21T11:34:41;97753.22;;;17.87;47.58
36190;BME280;22232;50.914;13.858;2023-04-21T11:37:13;97765.50;;;18.09;49.15
36190;BME280;22232;50.914;13.858;2023-04-21T11:39:43;97757.31;;;18.24;49.97
36190;BME280;22232;50.914;13.858;2023-04-21T11:42:11;97749.97;;;18.30;48.98
36190;BME280;22232;50.914;13.858;2023-04-21T11:44:46;97758.19;;;18.49;49.89
36190;BME280;22232;50.914;13.858;2023-04-21T11:47:19;97750.97;;;18.68;48.62
36190;BME280;22232;50.914;13.858;2023-04-21T11:49:52;97757.84;;;19.14;49.15
36190;BME280;22232;50.914;13.858;2023-04-21T11:52:33;97737.13;;;19.52;55.11
36190;BME280;22232;50.914;13.858;2023-04-21T11:55:10;97743.53;;;19.80;51.88
36190;BME280;22232;50.914;13.858;2023-04-21T11:57:39;97739.81;;;19.95;50.33
36190;BME280;22232;50.914;13.858;2023-04-21T12:00:08;97745.88;;;19.68;46.47
36190;BME280;22232;50.914;13.858;2023-04-21T12:02:54;97729.00;;;19.52;47.68
36190;BME280;22232;50.914;13.858;2023-04-21T12:05:22;97743.25;;;19.15;45.21
36190;BME280;22232;50.914;13.858;2023-04-21T12:07:54;97747.72;;;19.24;47.56
36190;BME280;22232;50.914;13.858;2023-04-21T12:10:22;97742.09;;;19.21;46.69
36190;BME280;22232;50.914;13.858;2023-04-21T12:12:49;97736.22;;;19.38;46.43
36190;BME280;22232;50.914;13.858;2023-04-21T12:15:19;97741.56;;;19.43;45.85
36190;BME280;22232;50.914;13.858;2023-04-21T12:17:49;97736.91;;;19.48;46.41
36190;BME280;22232;50.914;13.858;2023-04-21T12:20:20;97738.28;;;19.22;42.71
36190;BME280;22232;50.914;13.858;2023-04-21T12:22:48;97740.72;;;19.23;45.79
36190;BME280;22232;50.914;13.858;2023-04-21T12:25:16;97729.63;;;19.44;43.64
36190;BME280;22232;50.914;13.858;2023-04-21T12:27:51;97730.00;;;19.37;40.90
36190;BME280;22232;50.914;13.858;2023-04-21T12:30:20;97732.19;;;19.35;41.95
36190;BME280;22232;50.914;13.858;2023-04-21T12:32:47;97729.72;;;19.39;46.04
36190;BME280;22232;50.914;13.858;2023-04-21T12:35:15;97721.75;;;19.47;44.44
36190;BME280;22232;50.914;13.858;2023-04-21T12:37:43;97725.25;;;19.72;43.25
36190;BME280;22232;50.914;13.858;2023-04-21T12:40:11;97723.59;;;19.52;42.38
36190;BME280;22232;50.914;13.858;2023-04-21T12:42:39;97728.00;;;18.71;42.75
36190;BME280;22232;50.914;13.858;2023-04-21T12:45:07;97727.31;;;18.26;42.44
36190;BME280;22232;50.914;13.858;2023-04-21T12:47:35;97723.81;;;17.86;42.23
36190;BME280;22232;50.914;13.858;2023-04-21T12:50:04;97721.84;;;18.02;44.48
36190;BME280;22232;50.914;13.858;2023-04-21T12:52:31;97729.81;;;18.17;43.86
36190;BME280;22232;50.914;13.858;2023-04-21T12:54:59;97718.56;;;18.39;43.04
36190;BME280;22232;50.914;13.858;2023-04-21T12:57:27;97722.31;;;18.72;43.65
36190;BME280;22232;50.914;13.858;2023-04-21T12:59:55;97713.72;;;18.65;44.19
36190;BME280;22232;50.914;13.858;2023-04-21T13:02:22;97716.53;;;18.55;43.11
36190;BME280;22232;50.914;13.858;2023-04-21T13:04:50;97714.34;;;18.28;44.68
36190;BME280;22232;50.914;13.858;2023-04-21T13:07:18;97712.78;;;18.22;44.78
36190;BME280;22232;50.914;13.858;2023-04-21T13:09:48;97710.91;;;18.51;44.95
36190;BME280;22232;50.914;13.858;2023-04-21T13:12:15;97710.84;;;18.27;42.28